Decoded Metar for LCLK (LARNACA in CYPRUS) (IATA:LCA) | Meteo·Mobile Aviation Weather
aviador You're here:

LCLK Decoded Metar

LARNACA in CYPRUS
Report Time2018-09-18 22:30:00
UTC Time2018-09-18 22:58:36
Flight Rules vfr VFR
Wind260° at 07 kt
W.Decomp.*RWY 22: 5.7 kt HW 4.1 kt RCW
W.Rank260° ranks 25
Current wind is above 260° avg. (5.0)
Visibility9999 m
Phenomena:N/A
Clouds:N/A
Expected CloudBase > 7,600 ft AGL from Temp-Dew spread
CeilingNone
Temp28°C (ISA +13)
Dew Point09°C (30% RH)
Heat Index27.1°C
AAT25.2°C
QNH1009 hPa
Density Alt1,798 ft
Elevation7 ft
Report Wrong Elevation
Raw Report
LCLK 182230Z 26007KT CAVOK 28/09 Q1009 NOSIG=

Extra information for LCLK:More info

Metar Taf Metar & Taf Last 4 Metars F.Rules Stats Wind Profile Meteogram Temp Stats Airport Information Weather charts Add Link Nearby VenuesMetar ALERT Operation Metar Decoded Social comments